Colebrook, NH (03576)

8:21 AM EDT on March 27, 2015 (GMT -0400)
Diamond Pond | | Change Station
CLOSE
Current Station
Personal Weather Station
Location: Stewartstown, NH
Elevation: 2240 ft
Nearby Weather Stations

Elev 2240 ft 44.95 °N, 71.32 °W | Updated 13 minutes ago

Overcast
Overcast
28.7 °F
Feels Like 29 °F
N
0.0
Wind Variable Wind from NNE
Gusts 1.0 mph

Today
High -- | Low -- °F
--% Chance of Precip.
Yesterday
High -- | Low -- °F
Precip. -- in
6:36 AM 7:07 PM
First Quarter, 52% visible
Pressure 29.73 in
Visibility 6.0 miles
Clouds Few 800 ft
Scattered Clouds 1900 ft
Scattered Clouds 12000 ft
Windchill 29 °F
Dew Point 28 °F
Humidity 95%
Rainfall 0.00 in
Snow Depth Not available.
UV 1 out of 12
Pollen .60 out of 12
Air Quality Not available.
Flu Activity Not available.
METAR KBML 271152Z AUTO 00000KT 6SM BR FEW008 SCT019 SCT120 01/M01 A2969 RMK AO2 SLP067 70031 T00111006 10011 20006 53011

More Conditions Fewer Conditions

Pressure 29.73 in
Visibility 6.0 miles
Clouds Few 800 ft
Scattered Clouds 1900 ft
Scattered Clouds 12000 ft
Windchill 29 °F
Dew Point 28 °F
Humidity 95%
Rainfall 0.00 in
Snow Depth Not available.
UV 1 out of 12
Pollen .60 out of 12
Air Quality Not available.
Flu Activity Not available.
METAR KBML 271152Z AUTO 00000KT 6SM BR FEW008 SCT019 SCT120 01/M01 A2969 RMK AO2 SLP067 70031 T00111006 10011 20006 53011

More Conditions Fewer Conditions

10-Day Weather Forecast

Almanac

Astronomy

Mar. 27, 2015 Rise Set
Actual Time
Civil Twilight
Nautical Twilight
Astronomical Twilight
Moon
Length of Visible Light
Length of Day
Tomorrow will be .
, % of the Moon is Illuminated

Today's Extremes

State Highs State Lows

Community

WunderPhotos

Upload Photos

1,808,715 photos uploaded!

WunderBlogs® & News

Nearby

Air Quality

  Air Quality AQ Index Pollutant
Not available.

Snow Depth

Station Depth Elevation

Earthquake Activity

City Distance Mag. Time & Date
Minimum magnitude displayed is 2.5.

Coastal Water Temperatures

Place Temperature

Stations

Nearby Weather Stations

Station Location Temp. Windchill Dew Point Humidity Wind Precip. Elev Updated Type